العودة   :: Flying Way :: > ._][_ سـاحة المطـار والطائرات Airport and Aircraft's yard _][_. > السلامة الجوية Flight Safety
تحديث الصفحة [أخبـار] طائرة B737-700 تابعة لشركة ساوث ويست تنزلق على المدرج اثناء الهبوط بمطار مدينة بوربانك الدولي
الملاحظات

السلامة الجوية Flight Safety   متابعة أخبار حوادث الطيران وتحليل المعلومات التي أدت إليها. راجع فهرس قسم  السلامة الجوية

أدوات الموضوع إبحث في الموضوع
الصورة الرمزية محمد احمد عسيري
Flying Way
قديم 07-12-2018, 10:10 AM   رقم المشاركة : [ 1 ]   
مشاهدة ملفه الشخصي
 
 
 
تم شكره 4,253 مرة في 2,368 مشاركة
محمد احمد عسيري يستحق الثقة والتقديرمحمد احمد عسيري يستحق الثقة والتقديرمحمد احمد عسيري يستحق الثقة والتقديرمحمد احمد عسيري يستحق الثقة والتقديرمحمد احمد عسيري يستحق الثقة والتقديرمحمد احمد عسيري يستحق الثقة والتقديرمحمد احمد عسيري يستحق الثقة والتقديرمحمد احمد عسيري يستحق الثقة والتقديرمحمد احمد عسيري يستحق الثقة والتقديرمحمد احمد عسيري يستحق الثقة والتقديرمحمد احمد عسيري يستحق الثقة والتقدير
معدل تقييم المستوى: 14347
Exclamation طائرة B737-700 تابعة لشركة ساوث ويست تنزلق على المدرج اثناء الهبوط بمطار مدينة بوربانك الدولي

انزلقت طائرة تابعة لشركة طيران ساوث ويست على مدرج الهبوط صباح اليوم الخميس في مطار مدينة بوربانك الدولي، في لوس أنجلوس بولاية كاليفورنيا الأمريكية.


وأوضحت هيئة الطيران الفيدرالي في بيان لها أن الرحلة التابعة لخطوط ساوث ويست رقم 278 والقادمة من أوكلاند توقفت عند نهاية المدرج الثامن عند الساعة التاسعة صباحاً، بعد انزلاقها أثناء الهبوط.


من جانبها أكدت الشركة على أنه لم ترد تقارير عن وقوع إصابات بين 112 راكباً وخمسة من أفراد الطاقم كانوا على متن الطائرة التابعة للشركة، فيما لم يتم التأكد عما إذا كان المطر عاملاً مؤثراً في الحادث من عدمه.


وتمكن الطيار بمهارة عالية من التحكم في الطائرة، واستطاع إيقافها باستخدام المكابح، على الأرض الزلقة بأمان، في الوقت المناسب، فيما تم إنزال الركاب عبر سلالم الطائرة.


وأعلن المطار استمرار العمل به، بينما طلبت شركة الطيران مراجعة العملاء الحاجزين على رحلاتها لجدول الرحلات لمعرفة أية تغييرات تطرأ على رحلاتهم نتيجة الحادث.






https://akhbaar24.argaam.com/article...86%D9%8A%D8%A7

2 أعضاء قالوا شكراً لـ محمد احمد عسيري على المشاركة المفيدة:
alzaiem (09-12-2018), الطيران العمانـي (07-12-2018)
قديم 07-12-2018, 10:14 AM   رقم المشاركة : [ 2 ]   
محمد احمد عسيري
Flying Way
الصورة الرمزية محمد احمد عسيري
Exclamation رد: طائرة B737-700 تابعة لشركة ساوث ويست تنزلق على المدرج اثناء الهبوط بمطار مدينة بوربانك الدولي


Incident: Southwest B737 at Burbank on Dec 6th 2018, overran runway on landing


A Southwest Airlines Boeing 737-700, registration N752SW performing flight WN-278 from Oakland,CA to Burbank,CA (USA) with 112 passengers and 5 crew, landed on Burbank's runway 08 (length 5800 feet/1765 meters) at 09:02L (17:02Z) but overran the end of the runway and came to a stop in the EMAS (engineered material arrestor system) past the end of the runway. There were no injuries, the aircraft sustained minor if any damage. The passenger disembarked via mobile stairs.

The airline reported the aircraft went into the EMAS at Burbank. All 112 passengers and 5 crew are unharmed and have disembarked via stairs.


Related NOTAMs:
12/012 (A1008/18) - RWY 08/26 CLSD. 06 DEC 17:58 2018 UNTIL 07 DEC 07:00 2018. CREATED: 06 DEC 17:59 2018

12/014 (A1010/18) - RWY 26 RWY END ID LGT U/S. 06 DEC 20:54 2018 UNTIL 12 DEC 07:00 2018. CREATED: 06 DEC 20:54 2018

Metars:
KBUR 061806Z 01014G17KT 3SM +RA BR SCT022 BKN050 OVC070 08/08 A2992 RMK AO2 PRESFR P0006 T00830078=
KBUR 061753Z 29005KT 2 1/2SM +RA BR FEW020 BKN026 OVC048 08/07 A2996 RMK AO2 SLP139 AIRCRAFT MISHAP P0049 60166 T00830072 10100 20083 53035=
KBUR 061723Z 28012KT 1 1/4SM +RA BR FEW008 BKN016 OVC024 08/08 A2994 RMK AO2 AIRCRAFT MISHAP P0032 T00830078=
KBUR 061715Z 29008KT 1SM +RA BR FEW005 BKN013 OVC031 08/08 A2993 RMK AO2 AIRCRAFT MISHAP P0026 T00830078=
KBUR 061653Z 28011KT 1 1/2SM +RA BR FEW004 OVC013 08/08 A2991 RMK AO2 SLP122 P0033 T00830083=
KBUR 061641Z 26011KT 2 1/2SM RA BR FEW004 BKN013 OVC019 09/09 A2989 RMK AO2 P0023 T00890089=
KBUR 061553Z 29005KT 1 1/4SM +RA BR BKN011 BKN017 OVC047 09/09 A2986 RMK AO2 SLP106 P0021 T00940089=
KBUR 061547Z 29005KT 1 3/4SM +RA BR SCT011 BKN047 OVC060 09/09 A2986 RMK AO2 P0017=
KBUR 061453Z 32003KT 4SM RA BR FEW003 SCT026 OVC049 09/09 A2985 RMK AO2 SLP103 P0020 60063 T00940094 58002=
KBUR 061440Z 26005KT 4SM +RA BR FEW003 SCT026 OVC049 09/09 A2985 RMK AO2 P0016 T00940094=
KBUR 061353Z 31005KT 5SM RA BR FEW015 SCT025 OVC049 09/09 A2986 RMK AO2 SLP104 P0020 T00940094=
KBUR 061253Z 32007KT 3SM RA BR SCT010 OVC017 09/09 A2986 RMK AO2 SLP104 P0023 T00890089=

N752SW in the EMAS


The nose gear stuck in the EMAS



Map (Graphics: AVH/Google Earth):

http://avherald.com/h?article=4c1378c5&opt=0
  إقتباس
2 أعضاء قالوا شكراً لـ محمد احمد عسيري على المشاركة المفيدة:
alzaiem (09-12-2018), الطيران العمانـي (07-12-2018)
قديم 12-12-2018, 12:59 PM   رقم المشاركة : [ 3 ]   
محمد احمد عسيري
Flying Way
الصورة الرمزية محمد احمد عسيري
Exclamation رد: طائرة B737-700 تابعة لشركة ساوث ويست تنزلق على المدرج اثناء الهبوط بمطار مدينة بوربانك الدولي

سجل المحادثات

  إقتباس
إضافة رد

«     اصطدام طائرتين أميركيتين في الجو قبالة سواحل اليابان اثناء تدريب على إعادة التزود بالوقود ومقتل 6 اشخاص بالحادث   |    خطأ فنيين من إيرباص وراء تحطم طائرة هيلوكوبتر العام الماضي في مالي    »


الذين يشاهدون محتوى الموضوع الآن : 1 ( الأعضاء 0 والزوار 1)
 
أدوات الموضوع إبحث في الموضوع
إبحث في الموضوع:

البحث المتقدم

الانتقال السريع

الساعة الآن 10:57 AM.
Powered by vBulletin® Version 3.8.9
Copyright ©2000 - 2018, vBulletin Solutions, Inc.
حق العلم والمعرفة يعادل حق الحياة للأنسان - لذا نحن كمسؤلين في الشبكة متنازلون عن جميع الحقوق
All trademarks and copyrights held by respective owners. Member comments are owned by the poster.
خط الطيران 2004-2018